createdAt,value
2018-11-01T00:00:09.741Z,11.17
2018-11-01T00:01:09.733Z,11.16
2018-11-01T00:02:09.719Z,11.14
2018-11-01T00:03:09.710Z,11.13
2018-11-01T00:04:09.716Z,11.10
2018-11-01T00:05:09.680Z,11.13
2018-11-01T00:06:09.679Z,11.13
2018-11-01T00:07:09.661Z,11.07
2018-11-01T00:08:09.653Z,11.10
2018-11-01T00:09:09.666Z,11.09
2018-11-01T00:10:09.627Z,11.03
2018-11-01T00:11:09.618Z,11.09
2018-11-01T00:12:09.609Z,11.02
2018-11-01T00:13:09.590Z,10.92
2018-11-01T00:14:09.608Z,10.95
2018-11-01T00:15:09.576Z,10.95
2018-11-01T00:16:09.555Z,10.96
2018-11-01T00:17:09.552Z,10.92
2018-11-01T00:18:09.532Z,10.89
2018-11-01T00:19:09.549Z,10.83
2018-11-01T00:20:09.508Z,10.83
2018-11-01T00:21:09.506Z,10.86
2018-11-01T00:22:09.486Z,10.86
2018-11-01T00:23:09.474Z,10.80
2018-11-01T00:24:09.493Z,10.77
2018-11-01T00:25:09.451Z,10.76
2018-11-01T00:26:09.447Z,10.70
2018-11-01T00:27:09.433Z,10.76
2018-11-01T00:28:09.425Z,10.71
2018-11-01T00:29:09.425Z,10.73
2018-11-01T00:30:09.395Z,10.68
2018-11-01T00:31:09.383Z,10.76
2018-11-01T00:32:09.378Z,10.74
2018-11-01T00:33:09.359Z,10.78
2018-11-01T00:34:09.371Z,10.73
2018-11-01T00:35:09.337Z,10.83
2018-11-01T00:36:09.327Z,10.83
2018-11-01T00:37:09.324Z,10.83
2018-11-01T00:38:09.297Z,10.88
2018-11-01T00:39:09.310Z,10.81
2018-11-01T00:40:09.282Z,10.81
2018-11-01T00:41:09.271Z,10.86
2018-11-01T00:42:09.254Z,10.86
2018-11-01T00:43:09.247Z,10.89
2018-11-01T00:44:09.253Z,10.88
2018-11-01T00:45:09.224Z,10.81
2018-11-01T00:46:09.209Z,10.81
2018-11-01T00:47:09.192Z,10.74
2018-11-01T00:48:09.190Z,10.74
2018-11-01T00:49:09.195Z,10.70
2018-11-01T00:50:09.160Z,10.71
2018-11-01T00:51:09.152Z,10.65
2018-11-01T00:52:09.138Z,10.53
2018-11-01T00:53:09.130Z,10.56
2018-11-01T00:54:09.135Z,10.58
2018-11-01T00:55:09.108Z,10.52
2018-11-01T00:56:09.087Z,10.44
2018-11-01T00:57:09.087Z,10.52
2018-11-01T00:58:09.065Z,10.55
2018-11-01T00:59:09.074Z,10.59
2018-11-01T01:00:09.042Z,10.59
2018-11-01T01:01:09.034Z,10.68
2018-11-01T01:02:09.019Z,10.60
2018-11-01T01:03:09.014Z,10.71
2018-11-01T01:04:09.013Z,10.73
2018-11-01T01:05:08.989Z,10.83
2018-11-01T01:06:08.968Z,10.98
2018-11-01T01:07:08.960Z,10.95
2018-11-01T01:08:08.951Z,11.09
2018-11-01T01:09:08.964Z,11.09
2018-11-01T01:10:08.957Z,11.07
2018-11-01T01:11:08.927Z,11.06
2018-11-01T01:12:08.912Z,11.07
2018-11-01T01:13:08.890Z,10.95
2018-11-01T01:14:08.897Z,10.98
2018-11-01T01:15:08.865Z,10.94
2018-11-01T01:16:08.850Z,10.95
2018-11-01T01:17:08.842Z,10.89
2018-11-01T01:18:08.832Z,10.83
2018-11-01T01:19:08.846Z,10.71
2018-11-01T01:20:08.804Z,10.71
2018-11-01T01:21:08.798Z,10.73
2018-11-01T01:22:08.787Z,10.73
2018-11-01T01:23:08.772Z,10.76
2018-11-01T01:24:08.785Z,10.68
2018-11-01T01:25:08.748Z,10.66
2018-11-01T01:26:08.733Z,10.70
2018-11-01T01:27:08.721Z,10.66
2018-11-01T01:28:08.713Z,10.68
2018-11-01T01:29:08.725Z,10.59
2018-11-01T01:30:08.686Z,10.66
2018-11-01T01:31:08.677Z,10.71
2018-11-01T01:32:08.671Z,10.53
2018-11-01T01:33:08.654Z,10.60
2018-11-01T01:34:08.670Z,10.53
2018-11-01T01:35:08.627Z,10.55
2018-11-01T01:36:08.617Z,10.42
2018-11-01T01:37:08.602Z,10.46
2018-11-01T01:38:08.588Z,10.47
2018-11-01T01:39:08.606Z,10.44
2018-11-01T01:40:08.570Z,10.44
2018-11-01T01:41:08.561Z,10.58
2018-11-01T01:42:08.540Z,10.55
2018-11-01T01:43:08.529Z,10.66
2018-11-01T01:44:08.525Z,10.62
2018-11-01T01:45:08.530Z,10.70
2018-11-01T01:46:08.548Z,10.60
2018-11-01T01:47:08.587Z,10.58
2018-11-01T01:48:08.468Z,10.63
2018-11-01T01:49:08.465Z,10.56
2018-11-01T01:50:08.469Z,10.66
2018-11-01T01:51:08.439Z,10.66
2018-11-01T01:52:08.425Z,10.68
2018-11-01T01:53:08.408Z,10.71
2018-11-01T01:54:08.400Z,10.70
2018-11-01T01:55:08.410Z,10.73
2018-11-01T01:56:08.375Z,10.71
2018-11-01T01:57:08.369Z,10.68
2018-11-01T01:58:08.352Z,10.77
2018-11-01T01:59:08.345Z,10.76
2018-11-01T02:00:08.345Z,10.77
2018-11-01T02:01:08.322Z,10.77
2018-11-01T02:02:08.302Z,10.63
2018-11-01T02:03:08.296Z,10.78
2018-11-01T02:04:08.288Z,10.73
2018-11-01T02:05:08.292Z,10.73
2018-11-01T02:06:08.256Z,10.71
2018-11-01T02:07:08.244Z,10.68
2018-11-01T02:08:08.235Z,10.65
2018-11-01T02:09:08.222Z,10.66
2018-11-01T02:10:08.228Z,10.59
2018-11-01T02:11:08.199Z,10.53
2018-11-01T02:12:08.189Z,10.58
2018-11-01T02:13:08.179Z,10.52
2018-11-01T02:14:08.161Z,10.56
2018-11-01T02:15:08.172Z,10.56
2018-11-01T02:16:08.139Z,10.58
2018-11-01T02:17:08.124Z,10.46
2018-11-01T02:18:08.143Z,10.43
2018-11-01T02:19:08.103Z,10.44
2018-11-01T02:20:08.094Z,10.43
2018-11-01T02:21:08.080Z,10.43
2018-11-01T02:22:08.071Z,10.36
2018-11-01T02:23:08.078Z,10.30
2018-11-01T02:24:08.043Z,10.33
2018-11-01T02:25:08.036Z,10.32
2018-11-01T02:26:08.025Z,10.33
2018-11-01T02:27:08.004Z,10.28
2018-11-01T02:28:08.001Z,10.25
2018-11-01T02:29:08.015Z,10.21
2018-11-01T02:30:07.974Z,10.21
2018-11-01T02:31:07.965Z,10.15
2018-11-01T02:32:07.945Z,10.17
2018-11-01T02:33:07.937Z,10.12
2018-11-01T02:34:07.927Z,10.10
2018-11-01T02:35:07.935Z,10.00
2018-11-01T02:36:07.900Z,10.00
2018-11-01T02:37:07.894Z,10.00
2018-11-01T02:38:07.952Z,9.99
2018-11-01T02:39:07.884Z,9.91
2018-11-01T02:40:07.899Z,9.83
2018-11-01T02:41:07.847Z,9.81
2018-11-01T02:42:07.826Z,9.81
2018-11-01T02:43:07.824Z,9.86
2018-11-01T02:44:07.808Z,9.82
2018-11-01T02:45:07.799Z,9.76
2018-11-01T02:46:07.806Z,9.78
2018-11-01T02:47:07.773Z,9.78
2018-11-01T02:48:07.759Z,9.71
2018-11-01T02:49:07.745Z,9.73
2018-11-01T02:50:07.738Z,9.61
2018-11-01T02:51:07.729Z,9.63
2018-11-01T02:52:07.736Z,9.61
2018-11-01T02:53:07.706Z,9.61
2018-11-01T02:54:07.690Z,9.50
2018-11-01T02:55:07.685Z,9.50
2018-11-01T02:56:07.669Z,9.57
2018-11-01T02:57:07.656Z,9.52
2018-11-01T02:58:07.668Z,9.56
2018-11-01T02:59:07.627Z,9.46
2018-11-01T03:00:07.628Z,9.50
2018-11-01T03:01:07.611Z,9.63
2018-11-01T03:02:07.594Z,9.60
2018-11-01T03:03:07.590Z,9.56
2018-11-01T03:04:07.598Z,9.50
2018-11-01T03:05:07.560Z,9.58
2018-11-01T03:06:07.551Z,9.52
2018-11-01T03:07:07.535Z,9.49
2018-11-01T03:08:07.533Z,9.42
2018-11-01T03:09:07.513Z,9.39
2018-11-01T03:10:07.539Z,9.30
2018-11-01T03:11:07.499Z,9.24
2018-11-01T03:12:07.479Z,9.21
2018-11-01T03:13:07.477Z,9.13
2018-11-01T03:14:07.456Z,9.05
2018-11-01T03:15:07.450Z,9.01
2018-11-01T03:16:07.467Z,9.12
2018-11-01T03:17:07.446Z,9.04
2018-11-01T03:18:07.417Z,8.96
2018-11-01T03:19:07.406Z,9.05
2018-11-01T03:20:07.391Z,8.99
2018-11-01T03:21:07.383Z,8.96
2018-11-01T03:22:07.394Z,8.93
2018-11-01T03:23:07.357Z,8.91
2018-11-01T03:24:07.376Z,8.79
2018-11-01T03:25:07.339Z,8.69
2018-11-01T03:26:07.319Z,8.68
2018-11-01T03:27:07.315Z,8.62
2018-11-01T03:28:07.327Z,8.63
2018-11-01T03:29:07.285Z,8.53
2018-11-01T03:30:07.283Z,8.51
2018-11-01T03:31:07.274Z,8.37
2018-11-01T03:32:07.262Z,8.48
2018-11-01T03:33:07.247Z,8.44
2018-11-01T03:34:07.260Z,8.44
2018-11-01T03:35:07.247Z,8.36
2018-11-01T03:36:07.208Z,8.40
2018-11-01T03:37:07.197Z,8.39
2018-11-01T03:38:07.299Z,8.44
2018-11-01T03:39:07.318Z,8.26
2018-11-01T03:40:07.192Z,8.28
2018-11-01T03:41:07.169Z,8.22
2018-11-01T03:42:07.148Z,8.18
2018-11-01T03:43:07.136Z,8.08
2018-11-01T03:44:07.121Z,7.96
2018-11-01T03:45:07.113Z,8.00
2018-11-01T03:46:07.115Z,7.92
2018-11-01T03:47:07.097Z,7.90
2018-11-01T03:48:07.077Z,7.92
2018-11-01T03:49:07.075Z,7.87
2018-11-01T03:50:07.079Z,7.93
2018-11-01T03:51:07.067Z,7.96
2018-11-01T03:52:07.129Z,7.94
2018-11-01T03:53:07.018Z,7.94
2018-11-01T03:54:07.004Z,7.85
2018-11-01T03:55:06.999Z,7.89
2018-11-01T03:56:06.977Z,7.84
2018-11-01T03:57:07.000Z,7.87
2018-11-01T03:58:06.961Z,7.75
2018-11-01T03:59:06.948Z,7.77
2018-11-01T04:00:06.940Z,7.69
2018-11-01T04:01:06.923Z,7.69
2018-11-01T04:02:06.909Z,7.63
2018-11-01T04:03:06.925Z,7.59
2018-11-01T04:04:06.899Z,7.59
2018-11-01T04:05:06.872Z,7.62
2018-11-01T04:06:06.869Z,7.60
2018-11-01T04:07:06.861Z,7.63
2018-11-01T04:08:06.871Z,7.47
2018-11-01T04:09:06.834Z,7.52
2018-11-01T04:10:06.815Z,7.42
2018-11-01T04:11:06.803Z,7.44
2018-11-01T04:12:06.801Z,7.45
2018-11-01T04:13:06.780Z,7.35
2018-11-01T04:14:06.806Z,7.58
2018-11-01T04:15:06.868Z,7.59
2018-11-01T04:16:06.748Z,7.67
2018-11-01T04:17:06.850Z,7.63
2018-11-01T04:18:06.722Z,7.69
2018-11-01T04:19:06.720Z,7.79
2018-11-01T04:20:06.721Z,7.81
2018-11-01T04:21:06.690Z,7.92
2018-11-01T04:22:06.682Z,7.82
2018-11-01T04:23:06.755Z,7.81
2018-11-01T04:24:06.664Z,7.87
2018-11-01T04:25:06.674Z,7.84
2018-11-01T04:26:06.634Z,7.87
2018-11-01T04:27:06.639Z,7.84
2018-11-01T04:28:06.612Z,7.75
2018-11-01T04:29:06.605Z,7.77
2018-11-01T04:30:06.590Z,7.72
2018-11-01T04:31:06.600Z,7.67
2018-11-01T04:32:06.565Z,7.52
2018-11-01T04:33:06.559Z,7.59
2018-11-01T04:34:06.545Z,7.40
2018-11-01T04:35:06.531Z,7.50
2018-11-01T04:36:06.560Z,7.44
2018-11-01T04:37:06.502Z,7.35
2018-11-01T04:38:06.500Z,7.41
2018-11-01T04:39:06.483Z,7.35
2018-11-01T04:40:06.478Z,7.34
2018-11-01T04:41:06.471Z,7.35
2018-11-01T04:42:06.472Z,7.32
2018-11-01T04:43:06.442Z,7.38
2018-11-01T04:44:06.484Z,7.41
2018-11-01T04:45:06.429Z,7.44
2018-11-01T04:46:06.415Z,7.44
2018-11-01T04:47:06.395Z,7.40
2018-11-01T04:48:06.411Z,7.42
2018-11-01T04:49:06.371Z,7.45
2018-11-01T04:50:06.354Z,7.47
2018-11-01T04:51:06.341Z,7.53
2018-11-01T04:52:06.338Z,7.58
2018-11-01T04:53:06.323Z,7.56
2018-11-01T04:54:06.336Z,7.55
2018-11-01T04:55:06.311Z,7.58
2018-11-01T04:56:06.282Z,7.56
2018-11-01T04:57:06.273Z,7.44
2018-11-01T04:58:06.266Z,7.66
2018-11-01T04:59:06.257Z,7.60
2018-11-01T05:00:06.268Z,7.42
2018-11-01T05:01:06.231Z,7.49
2018-11-01T05:02:06.222Z,7.41
2018-11-01T05:03:06.219Z,7.32
2018-11-01T05:04:06.196Z,7.26
2018-11-01T05:05:06.265Z,7.22
2018-11-01T05:06:06.195Z,7.15
2018-11-01T05:07:06.164Z,7.02
2018-11-01T05:08:06.160Z,7.02
2018-11-01T05:09:06.137Z,6.95
2018-11-01T05:10:06.128Z,6.95
2018-11-01T05:11:06.110Z,6.87
2018-11-01T05:12:06.137Z,6.84
2018-11-01T05:13:06.092Z,6.90
2018-11-01T05:14:06.076Z,6.98
2018-11-01T05:15:06.119Z,6.98
2018-11-01T05:16:06.051Z,6.86
2018-11-01T05:17:06.043Z,6.83
2018-11-01T05:18:06.054Z,6.86
2018-11-01T05:19:06.024Z,6.90
2018-11-01T05:20:06.030Z,6.81
2018-11-01T05:21:06.002Z,6.83
2018-11-01T05:22:05.990Z,6.89
2018-11-01T05:23:05.996Z,6.87
2018-11-01T05:24:05.967Z,6.91
2018-11-01T05:25:05.951Z,6.94
2018-11-01T05:26:05.943Z,6.90
2018-11-01T05:27:05.932Z,6.86
2018-11-01T05:28:05.911Z,6.84
2018-11-01T05:29:05.936Z,6.83
2018-11-01T05:30:05.889Z,6.72
2018-11-01T05:31:05.884Z,6.76
2018-11-01T05:32:05.871Z,6.71
2018-11-01T05:33:05.860Z,6.69
2018-11-01T05:34:05.852Z,6.76
2018-11-01T05:35:05.880Z,6.81
2018-11-01T05:36:05.826Z,6.81
2018-11-01T05:37:05.817Z,6.83
2018-11-01T05:38:05.852Z,6.84
2018-11-01T05:39:05.786Z,6.87
2018-11-01T05:40:05.780Z,6.79
2018-11-01T05:41:05.784Z,6.87
2018-11-01T05:42:05.775Z,6.97
2018-11-01T05:43:05.744Z,7.12
2018-11-01T05:44:05.731Z,7.24
2018-11-01T05:45:05.720Z,7.35
2018-11-01T05:46:05.736Z,7.34
2018-11-01T05:47:05.693Z,7.42
2018-11-01T05:48:05.686Z,7.52
2018-11-01T05:49:05.673Z,7.52
2018-11-01T05:50:05.657Z,7.53
2018-11-01T05:51:05.647Z,7.81
2018-11-01T05:52:05.665Z,7.92
2018-11-01T05:53:05.621Z,8.11
2018-11-01T05:54:05.618Z,8.22
2018-11-01T05:55:05.616Z,8.32
2018-11-01T05:56:05.596Z,8.22
2018-11-01T05:57:05.595Z,8.33
2018-11-01T05:58:05.596Z,8.25
2018-11-01T05:59:05.557Z,8.36
2018-11-01T06:00:05.626Z,8.35
2018-11-01T06:01:05.533Z,8.29
2018-11-01T06:02:05.525Z,8.22
2018-11-01T06:03:05.545Z,8.14
2018-11-01T06:04:05.499Z,8.15
2018-11-01T06:05:05.491Z,8.08
2018-11-01T06:06:05.486Z,7.96
2018-11-01T06:07:05.474Z,7.84
2018-11-01T06:08:05.458Z,7.74
2018-11-01T06:09:05.474Z,7.62
2018-11-01T06:10:05.430Z,7.59
2018-11-01T06:11:05.426Z,7.72
2018-11-01T06:12:05.424Z,7.75
2018-11-01T06:13:05.403Z,7.82
2018-11-01T06:14:05.384Z,7.85
2018-11-01T06:15:05.499Z,7.90
2018-11-01T06:16:05.364Z,7.82
2018-11-01T06:17:05.356Z,7.75
2018-11-01T06:18:05.340Z,7.66
2018-11-01T06:19:05.331Z,7.55
2018-11-01T06:20:05.350Z,7.41
2018-11-01T06:21:05.311Z,7.41
2018-11-01T06:22:05.292Z,7.44
2018-11-01T06:23:05.279Z,7.41
2018-11-01T06:24:05.276Z,7.40
2018-11-01T06:25:05.260Z,7.38
2018-11-01T06:26:05.271Z,7.35
2018-11-01T06:27:05.233Z,7.19
2018-11-01T06:28:05.230Z,7.20
2018-11-01T06:29:05.216Z,7.17
2018-11-01T06:30:05.202Z,7.17
2018-11-01T06:31:05.217Z,7.19
2018-11-01T06:32:05.182Z,7.13
2018-11-01T06:33:05.173Z,7.13
2018-11-01T06:34:05.153Z,7.02
2018-11-01T06:35:05.146Z,6.95
2018-11-01T06:36:05.139Z,6.89
2018-11-01T06:37:05.150Z,6.87
2018-11-01T06:38:05.110Z,6.87
2018-11-01T06:39:05.107Z,6.83
2018-11-01T06:40:05.089Z,6.80
2018-11-01T06:41:05.073Z,6.76
2018-11-01T06:42:05.060Z,6.68
2018-11-01T06:43:05.080Z,6.79
2018-11-01T06:44:05.043Z,6.91
2018-11-01T06:45:05.034Z,6.99
2018-11-01T06:46:05.012Z,7.08
2018-11-01T06:47:05.002Z,7.32
2018-11-01T06:48:04.998Z,7.35
2018-11-01T06:49:05.012Z,7.47
2018-11-01T06:50:04.990Z,7.53
2018-11-01T06:51:04.964Z,7.60
2018-11-01T06:52:04.990Z,7.59
2018-11-01T06:53:04.940Z,7.55
2018-11-01T06:54:04.926Z,7.53
2018-11-01T06:55:04.935Z,7.53
2018-11-01T06:56:04.907Z,7.58
2018-11-01T06:57:04.899Z,7.42
2018-11-01T06:58:04.904Z,7.42
2018-11-01T06:59:05.076Z,7.45
2018-11-01T07:00:04.867Z,7.38
2018-11-01T07:01:04.902Z,7.35
2018-11-01T07:02:04.890Z,7.38
2018-11-01T07:03:04.826Z,7.41
2018-11-01T07:04:04.849Z,7.45
2018-11-01T07:05:04.797Z,7.52
2018-11-01T07:06:04.816Z,7.40
2018-11-01T07:07:04.777Z,7.47
2018-11-01T07:08:04.762Z,7.52
2018-11-01T07:09:04.748Z,7.56
2018-11-01T07:10:04.745Z,7.60
2018-11-01T07:11:04.729Z,7.67
2018-11-01T07:12:04.742Z,7.62
2018-11-01T07:13:04.711Z,7.72
2018-11-01T07:14:04.691Z,7.69
2018-11-01T07:15:04.683Z,7.81
2018-11-01T07:16:04.674Z,7.74
2018-11-01T07:17:04.754Z,7.85
2018-11-01T07:18:04.650Z,7.81
2018-11-01T07:19:04.640Z,7.82
2018-11-01T07:20:04.628Z,7.77
2018-11-01T07:21:04.619Z,7.93
2018-11-01T07:22:04.623Z,7.89
2018-11-01T07:23:04.597Z,7.97
2018-11-01T07:24:04.577Z,8.00
2018-11-01T07:25:04.654Z,7.97
2018-11-01T07:26:04.716Z,8.07
2018-11-01T07:27:04.579Z,8.07
2018-11-01T07:28:04.543Z,8.28
2018-11-01T07:29:04.608Z,8.21
2018-11-01T07:30:04.519Z,8.30
2018-11-01T07:31:04.499Z,8.28
2018-11-01T07:32:04.497Z,8.45
2018-11-01T07:33:04.576Z,8.35
2018-11-01T07:34:04.474Z,8.42
2018-11-01T07:35:04.464Z,8.50
2018-11-01T07:36:04.444Z,8.53
2018-11-01T07:37:04.440Z,8.63
2018-11-01T07:38:04.420Z,8.72
2018-11-01T07:39:04.441Z,8.75
2018-11-01T07:40:04.512Z,8.84
2018-11-01T07:41:04.385Z,8.87
2018-11-01T07:42:04.392Z,8.97
2018-11-01T07:43:04.372Z,9.12
2018-11-01T07:44:04.386Z,9.10
2018-11-01T07:45:04.350Z,9.23
2018-11-01T07:46:04.336Z,9.39
2018-11-01T07:47:04.329Z,9.46
2018-11-01T07:48:04.308Z,9.45
2018-11-01T07:49:04.304Z,9.50
2018-11-01T07:50:04.311Z,9.49
2018-11-01T07:51:04.273Z,9.64
2018-11-01T07:52:04.271Z,9.63
2018-11-01T07:53:04.249Z,9.67
2018-11-01T07:54:04.246Z,9.64
2018-11-01T07:55:04.228Z,9.67
2018-11-01T07:56:04.248Z,9.76
2018-11-01T07:57:04.210Z,9.71
2018-11-01T07:58:04.191Z,9.81
2018-11-01T07:59:04.183Z,9.85
2018-11-01T08:00:04.175Z,9.91
2018-11-01T08:01:04.155Z,9.94
2018-11-01T08:02:04.179Z,10.03
2018-11-01T08:03:04.134Z,10.15
2018-11-01T08:04:04.128Z,10.14
2018-11-01T08:05:04.107Z,10.19
2018-11-01T08:06:04.270Z,10.34
2018-11-01T08:07:04.087Z,10.43
2018-11-01T08:08:04.098Z,10.52
2018-11-01T08:09:04.064Z,10.66
2018-11-01T08:10:04.054Z,10.81
2018-11-01T08:11:04.038Z,10.98
2018-11-01T08:12:04.033Z,11.07
2018-11-01T08:13:04.042Z,11.20
2018-11-01T08:14:04.011Z,11.35
2018-11-01T08:15:04.003Z,11.52
2018-11-01T08:16:03.979Z,11.56
2018-11-01T08:17:03.977Z,11.59
2018-11-01T08:18:03.957Z,11.59
2018-11-01T08:19:03.976Z,11.62
2018-11-01T08:20:04.076Z,11.70
2018-11-01T08:21:04.036Z,11.78
2018-11-01T08:22:03.911Z,11.83
2018-11-01T08:23:03.903Z,11.82
2018-11-01T08:24:03.896Z,11.83
2018-11-01T08:25:03.901Z,11.75
2018-11-01T08:26:03.869Z,11.77
2018-11-01T08:27:03.864Z,11.75
2018-11-01T08:28:03.935Z,11.74
2018-11-01T08:29:03.839Z,11.70
2018-11-01T08:30:03.843Z,11.74
2018-11-01T08:31:03.808Z,11.75
2018-11-01T08:32:03.805Z,11.62
2018-11-01T08:33:03.783Z,11.68
2018-11-01T08:34:03.774Z,11.67
2018-11-01T08:35:03.760Z,11.57
2018-11-01T08:36:03.778Z,11.56
2018-11-01T08:37:03.737Z,11.62
2018-11-01T08:38:03.734Z,11.71
2018-11-01T08:39:03.717Z,11.74
2018-11-01T08:40:03.708Z,11.85
2018-11-01T08:41:03.821Z,11.82
2018-11-01T08:42:03.681Z,11.74
2018-11-01T08:43:03.669Z,11.71
2018-11-01T08:44:03.658Z,11.70
2018-11-01T08:45:03.648Z,11.67
2018-11-01T08:46:03.643Z,11.78
2018-11-01T08:47:03.649Z,11.83
2018-11-01T08:48:03.609Z,11.82
2018-11-01T08:49:03.609Z,11.80
2018-11-01T08:50:03.620Z,11.86
2018-11-01T08:51:03.583Z,11.97
2018-11-01T08:52:03.595Z,11.94
2018-11-01T08:53:03.559Z,11.94
2018-11-01T08:54:03.539Z,12.02
2018-11-01T08:55:03.535Z,12.04
2018-11-01T08:56:03.520Z,12.04
2018-11-01T08:57:03.522Z,12.12
2018-11-01T08:58:03.529Z,12.11
2018-11-01T08:59:03.480Z,12.09
2018-11-01T09:00:03.478Z,12.12
2018-11-01T09:01:03.463Z,12.08
2018-11-01T09:02:03.455Z,12.08
2018-11-01T09:03:03.436Z,12.06
2018-11-01T09:04:03.454Z,12.20
2018-11-01T09:05:03.418Z,12.23
2018-11-01T09:06:03.402Z,12.24
2018-11-01T09:07:03.388Z,12.26
2018-11-01T09:08:03.401Z,12.37
2018-11-01T09:09:03.400Z,12.30
2018-11-01T09:10:03.353Z,12.34
2018-11-01T09:11:03.340Z,12.48
2018-11-01T09:12:03.336Z,12.31
2018-11-01T09:13:03.361Z,12.34
2018-11-01T09:14:03.314Z,12.37
2018-11-01T09:15:03.317Z,12.42
2018-11-01T09:16:03.288Z,12.41
2018-11-01T09:17:03.291Z,12.37
2018-11-01T09:18:03.270Z,12.34
2018-11-01T09:19:03.302Z,12.45
2018-11-01T09:20:03.264Z,12.41
2018-11-01T09:21:03.229Z,12.39
2018-11-01T09:22:03.215Z,12.57
2018-11-01T09:23:03.201Z,12.41
2018-11-01T09:24:03.197Z,12.52
2018-11-01T09:25:03.187Z,12.44
2018-11-01T09:26:03.189Z,12.39
2018-11-01T09:27:03.312Z,12.37
2018-11-01T09:28:03.147Z,12.34
2018-11-01T09:29:03.139Z,12.37
2018-11-01T09:30:03.117Z,12.39
2018-11-01T09:31:03.141Z,12.46
2018-11-01T09:32:03.102Z,12.46
2018-11-01T09:33:03.083Z,12.46
2018-11-01T09:34:03.080Z,12.41
2018-11-01T09:35:03.064Z,12.42
2018-11-01T09:36:03.060Z,12.51
2018-11-01T09:37:03.067Z,12.44
2018-11-01T09:38:03.029Z,12.41
2018-11-01T09:39:03.016Z,12.42
2018-11-01T09:40:03.007Z,12.42
2018-11-01T09:41:02.992Z,12.41
2018-11-01T09:42:03.003Z,12.42
2018-11-01T09:43:02.965Z,12.39
2018-11-01T09:44:02.962Z,12.44
2018-11-01T09:45:02.940Z,12.45
2018-11-01T09:46:02.970Z,12.45
2018-11-01T09:47:03.285Z,12.38
2018-11-01T09:48:02.907Z,12.38
2018-11-01T09:49:02.903Z,12.34
2018-11-01T09:50:02.884Z,12.45
2018-11-01T09:51:02.881Z,12.46
2018-11-01T09:52:02.890Z,12.38
2018-11-01T09:53:02.856Z,12.31
2018-11-01T09:54:02.840Z,12.45
2018-11-01T09:55:02.831Z,12.44
2018-11-01T09:56:02.867Z,12.46
2018-11-01T09:57:02.808Z,12.44
2018-11-01T09:58:02.821Z,12.42
2018-11-01T09:59:02.787Z,12.42
2018-11-01T10:00:02.768Z,12.44
2018-11-01T10:01:02.794Z,12.42
2018-11-01T10:02:02.743Z,12.44
2018-11-01T10:03:02.738Z,12.45
2018-11-01T10:04:02.744Z,12.48
2018-11-01T10:05:02.712Z,12.59
2018-11-01T10:06:02.780Z,12.54
2018-11-01T10:07:02.703Z,12.64
2018-11-01T10:08:02.683Z,12.56
2018-11-01T10:09:02.695Z,12.64
2018-11-01T10:10:02.657Z,12.63
2018-11-01T10:11:02.646Z,12.66
2018-11-01T10:12:02.633Z,12.77
2018-11-01T10:13:02.619Z,12.66
2018-11-01T10:14:02.610Z,12.66
2018-11-01T10:15:02.688Z,12.52
2018-11-01T10:16:02.717Z,12.45
2018-11-01T10:17:02.739Z,12.51
2018-11-01T10:18:03.037Z,12.51
2018-11-01T10:19:02.556Z,12.64
2018-11-01T10:20:02.565Z,12.62
2018-11-01T10:21:02.532Z,12.59
2018-11-01T10:22:02.597Z,12.62
2018-11-01T10:23:02.572Z,12.69
2018-11-01T10:24:02.497Z,12.71
2018-11-01T10:25:02.483Z,12.71
2018-11-01T10:26:02.495Z,12.78
2018-11-01T10:27:02.452Z,12.77
2018-11-01T10:28:02.450Z,12.79
2018-11-01T10:29:02.438Z,12.82
2018-11-01T10:30:02.431Z,12.77
2018-11-01T10:31:02.417Z,12.87
2018-11-01T10:32:02.422Z,12.84
2018-11-01T10:33:02.392Z,12.85
2018-11-01T10:34:02.422Z,12.88
2018-11-01T10:35:02.366Z,12.82
2018-11-01T10:36:02.349Z,12.82
2018-11-01T10:37:02.341Z,12.93
2018-11-01T10:38:02.355Z,12.89
2018-11-01T10:39:02.318Z,12.79
2018-11-01T10:40:02.310Z,12.96
2018-11-01T10:41:02.292Z,12.97
2018-11-01T10:42:02.276Z,13.00
2018-11-01T10:43:02.268Z,12.93
2018-11-01T10:44:02.287Z,12.99
2018-11-01T10:45:02.250Z,12.97
2018-11-01T10:46:02.231Z,12.99
2018-11-01T10:47:02.225Z,12.92
2018-11-01T10:48:02.210Z,12.89
2018-11-01T10:49:02.196Z,12.87
2018-11-01T10:50:02.224Z,12.96
2018-11-01T10:51:02.186Z,12.99
2018-11-01T10:52:02.169Z,13.06
2018-11-01T10:53:02.158Z,13.00
2018-11-01T10:54:02.167Z,13.00
2018-11-01T10:55:02.131Z,12.92
2018-11-01T10:56:02.143Z,13.00
2018-11-01T10:57:02.102Z,12.96
2018-11-01T10:58:02.092Z,12.97
2018-11-01T10:59:02.084Z,12.97
2018-11-01T11:00:02.216Z,13.02
2018-11-01T11:01:02.169Z,12.92
2018-11-01T11:02:02.053Z,12.87
2018-11-01T11:03:02.035Z,12.84
2018-11-01T11:04:02.027Z,12.89
2018-11-01T11:05:02.017Z,12.88
2018-11-01T11:06:01.997Z,13.03
2018-11-01T11:07:02.015Z,13.04
2018-11-01T11:08:01.987Z,13.04
2018-11-01T11:09:01.968Z,13.11
2018-11-01T11:10:01.960Z,13.20
2018-11-01T11:11:01.942Z,13.21
2018-11-01T11:12:01.927Z,13.18
2018-11-01T11:13:01.957Z,13.18
2018-11-01T11:14:01.906Z,13.15
2018-11-01T11:15:01.896Z,13.14
2018-11-01T11:16:01.893Z,13.11
2018-11-01T11:17:01.873Z,13.06
2018-11-01T11:18:01.865Z,13.04
2018-11-01T11:19:01.872Z,12.99
2018-11-01T11:20:02.010Z,13.14
2018-11-01T11:21:02.186Z,13.03
2018-11-01T11:22:01.813Z,13.07
2018-11-01T11:23:01.819Z,13.04
2018-11-01T11:24:01.790Z,13.12
2018-11-01T11:25:01.805Z,13.12
2018-11-01T11:26:01.763Z,13.00
2018-11-01T11:27:01.759Z,13.03
2018-11-01T11:28:01.751Z,13.12
2018-11-01T11:29:01.729Z,13.12
2018-11-01T11:30:01.746Z,12.99
2018-11-01T11:31:01.731Z,13.15
2018-11-01T11:32:01.702Z,13.11
2018-11-01T11:33:01.687Z,13.17
2018-11-01T11:34:01.673Z,13.20
2018-11-01T11:35:01.669Z,13.29
2018-11-01T11:36:01.838Z,13.32
2018-11-01T11:37:01.638Z,13.32
2018-11-01T11:38:01.629Z,13.27
2018-11-01T11:39:01.674Z,13.20
2018-11-01T11:40:01.610Z,13.20
2018-11-01T11:41:01.593Z,13.24
2018-11-01T11:42:01.611Z,13.33
2018-11-01T11:43:01.573Z,13.29
2018-11-01T11:44:01.553Z,13.29
2018-11-01T11:45:01.546Z,13.22
2018-11-01T11:46:01.534Z,13.24
2018-11-01T11:47:01.523Z,13.15
2018-11-01T11:48:01.533Z,13.25
2018-11-01T11:49:01.499Z,13.20
2018-11-01T11:50:01.493Z,13.36
2018-11-01T11:51:01.471Z,13.29
2018-11-01T11:52:01.470Z,13.36
2018-11-01T11:53:01.472Z,13.37
2018-11-01T11:54:01.446Z,13.32
2018-11-01T11:55:01.431Z,13.27
2018-11-01T11:56:01.420Z,13.29
2018-11-01T11:57:01.512Z,13.32
2018-11-01T11:58:01.416Z,13.36
2018-11-01T11:59:01.384Z,13.27
2018-11-01T12:00:01.370Z,13.29
2018-11-01T12:01:01.360Z,13.15
2018-11-01T12:02:01.345Z,13.20
2018-11-01T12:03:01.357Z,13.18
2018-11-01T12:04:01.329Z,13.14
2018-11-01T12:05:01.316Z,13.14
2018-11-01T12:06:01.367Z,13.21
2018-11-01T12:07:01.287Z,13.20
2018-11-01T12:08:01.279Z,13.18
2018-11-01T12:09:01.296Z,13.24
2018-11-01T12:10:01.249Z,13.17
2018-11-01T12:11:01.243Z,13.09
2018-11-01T12:12:01.230Z,13.14
2018-11-01T12:13:01.217Z,13.09
2018-11-01T12:14:01.230Z,13.17
2018-11-01T12:15:01.227Z,13.22
2018-11-01T12:16:01.187Z,13.29
2018-11-01T12:17:01.170Z,13.25
2018-11-01T12:18:01.163Z,13.27
2018-11-01T12:19:01.147Z,13.18
2018-11-01T12:20:01.142Z,13.15
2018-11-01T12:21:01.153Z,13.03
2018-11-01T12:22:01.117Z,12.96
2018-11-01T12:23:01.102Z,13.03
2018-11-01T12:24:01.088Z,12.92
2018-11-01T12:25:01.081Z,12.95
2018-11-01T12:26:01.065Z,12.93
2018-11-01T12:27:01.081Z,12.84
2018-11-01T12:28:01.042Z,12.87
2018-11-01T12:29:01.258Z,12.81
2018-11-01T12:30:01.017Z,12.85
2018-11-01T12:31:01.010Z,12.74
2018-11-01T12:32:01.024Z,12.66
2018-11-01T12:33:00.980Z,12.67
2018-11-01T12:34:00.977Z,12.63
2018-11-01T12:35:01.040Z,12.60
2018-11-01T12:36:01.015Z,12.63
2018-11-01T12:37:00.968Z,12.60
2018-11-01T12:38:00.923Z,12.62
2018-11-01T12:39:00.913Z,12.59
2018-11-01T12:40:00.903Z,12.62
2018-11-01T12:41:00.892Z,12.64
2018-11-01T12:42:00.880Z,12.69
2018-11-01T12:43:00.899Z,12.62
2018-11-01T12:44:00.855Z,12.69
2018-11-01T12:45:00.839Z,12.70
2018-11-01T12:46:00.836Z,12.70
2018-11-01T12:47:00.819Z,12.70
2018-11-01T12:48:00.810Z,12.71
2018-11-01T12:49:00.822Z,12.69
2018-11-01T12:50:00.914Z,12.74
2018-11-01T12:51:00.772Z,12.75
2018-11-01T12:52:00.758Z,12.70
2018-11-01T12:53:00.754Z,12.74
2018-11-01T12:54:00.766Z,12.75
2018-11-01T12:55:00.731Z,12.74
2018-11-01T12:56:00.720Z,12.77
2018-11-01T12:57:00.699Z,12.77
2018-11-01T12:58:00.696Z,12.77
2018-11-01T12:59:00.678Z,12.71
2018-11-01T13:00:00.699Z,12.74
2018-11-01T13:01:00.658Z,12.74
2018-11-01T13:02:00.644Z,12.71
2018-11-01T13:03:00.635Z,12.71